createdAt,value
2023-02-24T00:02:00.373Z,44.13
2023-02-24T00:04:29.673Z,44.10
2023-02-24T00:06:56.979Z,44.37
2023-02-24T00:09:26.829Z,41.97
2023-02-24T00:11:57.280Z,46.37
2023-02-24T00:14:27.279Z,46.60
2023-02-24T00:16:54.826Z,67.80
2023-02-24T00:19:24.049Z,83.70
2023-02-24T00:21:52.002Z,75.40
2023-02-24T00:24:19.182Z,81.33
2023-02-24T00:26:46.259Z,76.10
2023-02-24T00:29:16.409Z,62.10
2023-02-24T00:31:43.959Z,57.63
2023-02-24T00:34:12.866Z,53.33
2023-02-24T00:36:40.719Z,51.70
2023-02-24T00:39:09.734Z,49.67
2023-02-24T00:41:40.280Z,47.43
2023-02-24T00:44:09.852Z,46.37
2023-02-24T00:46:45.056Z,44.33
2023-02-24T00:49:19.735Z,46.27
2023-02-24T00:51:49.125Z,50.70
2023-02-24T00:54:17.185Z,48.23
2023-02-24T00:56:45.938Z,56.07
2023-02-24T00:59:14.965Z,51.13
2023-02-24T01:01:45.199Z,54.47
2023-02-24T01:04:13.540Z,51.03
2023-02-24T01:06:49.538Z,50.40
2023-02-24T01:09:20.157Z,48.37
2023-02-24T01:12:22.125Z,52.17
2023-02-24T01:14:51.651Z,48.13
2023-02-24T01:17:19.670Z,53.07
2023-02-24T01:19:49.220Z,54.30
2023-02-24T01:22:20.612Z,57.20
2023-02-24T01:24:48.668Z,54.30
2023-02-24T01:27:18.948Z,53.50
2023-02-24T01:29:49.451Z,55.10
2023-02-24T01:32:21.710Z,56.00
2023-02-24T01:34:52.140Z,58.10
2023-02-24T01:37:19.666Z,50.90
2023-02-24T01:39:47.501Z,57.13
2023-02-24T01:42:20.509Z,50.87
2023-02-24T01:44:47.753Z,52.07
2023-02-24T01:47:18.541Z,52.53
2023-02-24T01:49:47.681Z,52.30
2023-02-24T01:52:30.625Z,49.87
2023-02-24T01:55:13.452Z,51.10
2023-02-24T01:57:41.456Z,49.10
2023-02-24T02:00:11.857Z,46.47
2023-02-24T02:02:42.431Z,58.77
2023-02-24T02:05:10.385Z,51.50
2023-02-24T02:07:39.400Z,57.33
2023-02-24T02:10:09.373Z,54.37
2023-02-24T02:12:38.625Z,52.77
2023-02-24T02:15:06.831Z,51.17
2023-02-24T02:17:58.565Z,60.37
2023-02-24T02:20:53.845Z,51.77
2023-02-24T02:23:45.853Z,52.83
2023-02-24T02:26:58.468Z,52.83
2023-02-24T02:29:43.168Z,54.97
2023-02-24T02:32:40.842Z,52.60
2023-02-24T02:35:19.234Z,56.83
2023-02-24T02:37:46.454Z,51.87
2023-02-24T02:40:28.334Z,55.80
2023-02-24T02:43:03.555Z,51.47
2023-02-24T02:45:35.040Z,53.10
2023-02-24T02:48:36.297Z,52.83
2023-02-24T02:51:17.551Z,53.93
2023-02-24T02:54:01.950Z,58.20
2023-02-24T02:56:52.917Z,56.53
2023-02-24T02:59:25.144Z,53.53
2023-02-24T03:01:55.770Z,58.73
2023-02-24T03:04:25.322Z,56.83
2023-02-24T03:07:02.922Z,60.30
2023-02-24T03:09:35.115Z,64.50
2023-02-24T03:12:16.213Z,56.43
2023-02-24T03:14:52.929Z,62.60
2023-02-24T03:17:25.071Z,62.27
2023-02-24T03:20:12.488Z,63.67
2023-02-24T03:23:05.766Z,62.63
2023-02-24T03:25:44.872Z,55.07
2023-02-24T03:28:18.886Z,60.13
2023-02-24T03:30:54.723Z,62.47
2023-02-24T03:33:35.943Z,70.07
2023-02-24T03:36:03.059Z,60.43
2023-02-24T03:38:33.141Z,64.03
2023-02-24T03:41:00.763Z,62.60
2023-02-24T03:43:31.698Z,65.37
2023-02-24T03:46:00.811Z,65.63
2023-02-24T03:48:28.806Z,62.77
2023-02-24T03:50:56.779Z,63.87
2023-02-24T03:53:44.341Z,62.37
2023-02-24T03:56:24.537Z,61.30
2023-02-24T03:59:19.055Z,64.03
2023-02-24T04:02:03.159Z,66.07
2023-02-24T04:04:54.313Z,70.20
2023-02-24T04:07:23.914Z,65.57
2023-02-24T04:10:05.533Z,65.43
2023-02-24T04:12:43.079Z,64.80
2023-02-24T04:15:40.167Z,65.97
2023-02-24T04:18:15.404Z,67.23
2023-02-24T04:20:43.865Z,63.93
2023-02-24T04:23:18.938Z,63.60
2023-02-24T04:25:49.422Z,66.10
2023-02-24T04:28:19.096Z,66.90
2023-02-24T04:30:49.676Z,60.83
2023-02-24T04:33:17.380Z,57.53
2023-02-24T04:35:50.590Z,58.90
2023-02-24T04:38:18.274Z,62.60
2023-02-24T04:40:45.752Z,60.83
2023-02-24T04:43:13.150Z,60.87
2023-02-24T04:45:40.449Z,62.80
2023-02-24T04:48:12.826Z,63.33
2023-02-24T04:50:43.494Z,62.93
2023-02-24T04:53:11.192Z,69.43
2023-02-24T04:55:49.081Z,60.93
2023-02-24T04:58:28.064Z,70.80
2023-02-24T05:00:56.093Z,66.67
2023-02-24T05:03:28.225Z,67.63
2023-02-24T05:05:58.284Z,65.93
2023-02-24T05:08:25.955Z,56.30
2023-02-24T05:10:53.648Z,58.83
2023-02-24T05:13:28.164Z,64.23
2023-02-24T05:15:56.975Z,61.13
2023-02-24T05:18:24.806Z,61.40
2023-02-24T05:21:13.518Z,61.07
2023-02-24T05:23:46.007Z,61.77
2023-02-24T05:26:18.920Z,70.63
2023-02-24T05:28:52.313Z,66.73
2023-02-24T05:31:28.288Z,67.87
2023-02-24T05:34:02.596Z,66.83
2023-02-24T05:36:34.460Z,67.43
2023-02-24T05:39:07.925Z,69.93
2023-02-24T05:41:38.229Z,63.77
2023-02-24T05:44:10.959Z,61.03
2023-02-24T05:46:44.640Z,67.10
2023-02-24T05:49:23.685Z,64.93
2023-02-24T05:51:55.156Z,60.67
2023-02-24T05:54:26.235Z,64.47
2023-02-24T05:56:53.106Z,60.00
2023-02-24T05:59:21.734Z,60.77
2023-02-24T06:01:53.301Z,63.50
2023-02-24T06:04:21.154Z,63.17
2023-02-24T06:06:54.975Z,64.93
2023-02-24T06:09:23.478Z,61.03
2023-02-24T06:11:51.386Z,62.20
2023-02-24T06:14:18.806Z,63.27
2023-02-24T06:16:46.224Z,59.60
2023-02-24T06:19:13.943Z,64.57
2023-02-24T06:21:42.176Z,57.13
2023-02-24T06:24:14.691Z,57.73
2023-02-24T06:26:45.856Z,58.20
2023-02-24T06:29:18.280Z,57.47
2023-02-24T06:31:45.887Z,58.63
2023-02-24T06:34:18.593Z,51.70
2023-02-24T06:36:47.149Z,52.50
2023-02-24T06:39:14.755Z,56.77
2023-02-24T06:41:42.733Z,56.53
2023-02-24T06:44:10.440Z,52.07
2023-02-24T06:46:37.961Z,57.40
2023-02-24T06:49:05.229Z,55.67
2023-02-24T06:51:33.408Z,56.00
2023-02-24T06:54:02.886Z,52.53
2023-02-24T06:56:32.363Z,52.17
2023-02-24T06:58:59.904Z,52.70
2023-02-24T07:01:28.970Z,55.70
2023-02-24T07:04:07.587Z,54.73
2023-02-24T07:06:38.374Z,59.17
2023-02-24T07:09:11.637Z,52.47
2023-02-24T07:11:41.675Z,53.77
2023-02-24T07:14:09.788Z,47.40
2023-02-24T07:16:37.136Z,42.40
2023-02-24T07:19:11.344Z,37.47
2023-02-24T07:21:39.929Z,33.83
2023-02-24T07:24:13.509Z,29.90
2023-02-24T07:26:42.235Z,38.37
2023-02-24T07:29:11.672Z,41.00
2023-02-24T07:31:39.933Z,43.83
2023-02-24T07:34:07.328Z,39.80
2023-02-24T07:36:49.250Z,34.90
2023-02-24T07:39:17.571Z,34.20
2023-02-24T07:41:45.700Z,32.57
2023-02-24T07:44:13.820Z,31.07
2023-02-24T07:46:43.048Z,30.73
2023-02-24T07:49:13.541Z,30.03
2023-02-24T07:51:40.826Z,32.87
2023-02-24T07:54:08.932Z,31.27
2023-02-24T07:56:46.030Z,31.10
2023-02-24T07:59:15.844Z,28.67
2023-02-24T08:01:49.927Z,30.03
2023-02-24T08:04:24.647Z,30.70
2023-02-24T08:06:56.376Z,33.50
2023-02-24T08:10:07.076Z,32.00
2023-02-24T08:12:35.371Z,33.30
2023-02-24T08:15:17.311Z,34.90
2023-02-24T08:17:47.654Z,37.23
2023-02-24T08:20:15.289Z,30.50
2023-02-24T08:22:52.579Z,28.83
2023-02-24T08:25:35.898Z,30.47
2023-02-24T08:28:08.373Z,31.43
2023-02-24T08:30:40.448Z,30.73
2023-02-24T08:33:10.810Z,34.80
2023-02-24T08:35:44.789Z,32.13
2023-02-24T08:38:15.862Z,35.53
2023-02-24T08:40:51.943Z,34.83
2023-02-24T08:43:25.502Z,33.40
2023-02-24T08:46:01.049Z,32.30
2023-02-24T08:48:42.312Z,34.33
2023-02-24T08:51:18.039Z,25.67
2023-02-24T08:53:47.159Z,28.13
2023-02-24T08:56:24.432Z,27.20
2023-02-24T08:59:05.642Z,29.13
2023-02-24T09:01:36.300Z,32.10
2023-02-24T09:04:08.219Z,31.23
2023-02-24T09:06:46.290Z,31.17
2023-02-24T09:09:17.632Z,27.40
2023-02-24T09:11:59.126Z,28.67
2023-02-24T09:14:36.605Z,31.30
2023-02-24T09:17:11.356Z,28.53
2023-02-24T09:20:02.142Z,29.30
2023-02-24T09:22:32.949Z,26.43
2023-02-24T09:25:18.429Z,28.13
2023-02-24T09:27:56.453Z,25.87
2023-02-24T09:30:39.140Z,24.13
2023-02-24T09:33:06.545Z,28.03
2023-02-24T09:35:36.831Z,23.77
2023-02-24T09:38:07.709Z,22.50
2023-02-24T09:40:39.563Z,23.97
2023-02-24T09:43:17.892Z,28.00
2023-02-24T09:46:14.878Z,28.13
2023-02-24T09:48:55.691Z,26.33
2023-02-24T09:51:25.766Z,24.87
2023-02-24T09:53:54.923Z,24.07
2023-02-24T09:56:22.970Z,25.80
2023-02-24T09:58:58.789Z,25.13
2023-02-24T10:01:43.120Z,20.13
2023-02-24T10:04:28.135Z,21.70
2023-02-24T10:07:14.326Z,20.87
2023-02-24T10:09:53.019Z,21.73
2023-02-24T10:12:32.351Z,20.50
2023-02-24T10:15:20.038Z,20.40
2023-02-24T10:17:56.231Z,23.13
2023-02-24T10:20:40.738Z,19.10
2023-02-24T10:23:33.140Z,24.60
2023-02-24T10:26:08.178Z,20.77
2023-02-24T10:28:38.144Z,23.27
2023-02-24T10:31:25.680Z,23.53
2023-02-24T10:34:06.476Z,23.67
2023-02-24T10:36:37.998Z,19.80
2023-02-24T10:39:25.858Z,23.20
2023-02-24T10:41:58.456Z,24.50
2023-02-24T10:44:36.142Z,23.97
2023-02-24T10:47:12.619Z,22.53
2023-02-24T10:49:58.210Z,23.17
2023-02-24T10:52:37.419Z,21.83
2023-02-24T10:55:34.333Z,23.80
2023-02-24T10:58:06.663Z,23.37
2023-02-24T11:01:00.516Z,19.93
2023-02-24T11:03:41.778Z,20.20
2023-02-24T11:06:40.792Z,23.07
2023-02-24T11:09:28.112Z,19.17
2023-02-24T11:12:30.351Z,19.33
2023-02-24T11:15:25.606Z,19.37
2023-02-24T11:17:58.686Z,21.83
2023-02-24T11:20:29.461Z,18.50
2023-02-24T11:23:12.296Z,20.60
2023-02-24T11:25:41.774Z,18.20
2023-02-24T11:28:36.454Z,17.37
2023-02-24T11:31:31.742Z,17.90
2023-02-24T11:34:29.011Z,16.33
2023-02-24T11:37:14.938Z,12.57
2023-02-24T11:39:57.311Z,15.80
2023-02-24T11:42:56.284Z,13.70
2023-02-24T11:45:40.079Z,10.33
2023-02-24T11:48:19.869Z,14.70
2023-02-24T11:50:58.511Z,12.40
2023-02-24T11:53:46.848Z,9.63
2023-02-24T11:56:16.251Z,12.97
2023-02-24T11:58:57.862Z,13.10
2023-02-24T12:02:14.407Z,15.47
2023-02-24T12:04:49.450Z,14.27
2023-02-24T12:07:36.331Z,11.93
2023-02-24T12:10:16.170Z,13.30
2023-02-24T12:13:15.203Z,13.53
2023-02-24T12:16:04.520Z,17.77
2023-02-24T12:18:41.085Z,14.00
2023-02-24T12:21:20.714Z,17.50
2023-02-24T12:23:50.698Z,14.00
2023-02-24T12:26:40.082Z,14.57
2023-02-24T12:29:21.387Z,14.50
2023-02-24T12:31:54.476Z,14.50
2023-02-24T12:34:47.021Z,13.97
2023-02-24T12:37:38.692Z,12.20
2023-02-24T12:40:22.512Z,12.73
2023-02-24T12:42:49.719Z,14.00
2023-02-24T12:45:30.762Z,16.77
2023-02-24T12:48:38.773Z,11.97
2023-02-24T12:51:09.243Z,12.13
2023-02-24T12:54:01.594Z,16.07
2023-02-24T12:56:40.716Z,14.83
2023-02-24T12:59:12.519Z,13.30
2023-02-24T13:01:43.940Z,12.83
2023-02-24T13:04:34.949Z,10.13
2023-02-24T13:07:12.486Z,7.53
2023-02-24T13:10:00.402Z,8.33
2023-02-24T13:12:55.055Z,5.60
2023-02-24T13:15:27.909Z,7.20
2023-02-24T13:17:57.995Z,6.73
2023-02-24T13:20:29.819Z,5.37
2023-02-24T13:22:57.101Z,6.53
2023-02-24T13:25:33.652Z,5.83
2023-02-24T13:28:03.872Z,7.80
2023-02-24T13:30:42.485Z,4.87
2023-02-24T13:33:18.572Z,4.50
2023-02-24T13:35:52.607Z,5.53
2023-02-24T13:38:30.509Z,5.30
2023-02-24T13:41:07.309Z,6.43
2023-02-24T13:43:34.191Z,5.47
2023-02-24T13:46:04.758Z,5.37
2023-02-24T13:49:02.535Z,7.50
2023-02-24T13:51:35.563Z,6.00
2023-02-24T13:54:20.261Z,7.13
2023-02-24T13:57:05.730Z,5.53
2023-02-24T14:00:10.312Z,6.90
2023-02-24T14:02:44.104Z,6.47
2023-02-24T14:05:36.112Z,6.43
2023-02-24T14:08:04.775Z,6.00
2023-02-24T14:10:34.810Z,7.90
2023-02-24T14:13:16.661Z,6.07
2023-02-24T14:15:46.937Z,6.43
2023-02-24T14:18:24.479Z,6.00
2023-02-24T14:20:53.132Z,6.57
2023-02-24T14:23:27.621Z,8.03
2023-02-24T14:26:00.625Z,6.93
2023-02-24T14:28:32.312Z,8.33
2023-02-24T14:31:04.856Z,9.63
2023-02-24T14:33:34.868Z,9.27
2023-02-24T14:36:07.838Z,10.47
2023-02-24T14:38:40.909Z,9.17
2023-02-24T14:41:21.200Z,11.57
2023-02-24T14:43:48.572Z,8.10
2023-02-24T14:46:16.631Z,12.93
2023-02-24T14:48:45.116Z,23.10
2023-02-24T14:51:22.888Z,16.07
2023-02-24T14:53:54.065Z,18.73
2023-02-24T14:56:23.580Z,19.77
2023-02-24T14:59:09.345Z,17.33
2023-02-24T15:01:42.315Z,11.57
2023-02-24T15:04:38.053Z,11.30
2023-02-24T15:07:12.496Z,12.83
2023-02-24T15:09:44.604Z,15.10
2023-02-24T15:12:13.785Z,13.93
2023-02-24T15:14:43.665Z,13.60
2023-02-24T15:17:16.555Z,16.93
2023-02-24T15:19:46.577Z,12.83
2023-02-24T15:22:24.538Z,12.23
2023-02-24T15:24:53.958Z,11.40
2023-02-24T15:27:24.912Z,14.90
2023-02-24T15:30:09.156Z,14.27
2023-02-24T15:32:38.437Z,16.27
2023-02-24T15:35:07.761Z,13.57
2023-02-24T15:37:43.660Z,13.63
2023-02-24T15:40:20.789Z,13.53
2023-02-24T15:42:56.640Z,25.47
2023-02-24T15:45:25.331Z,24.23
2023-02-24T15:47:54.511Z,22.93
2023-02-24T15:50:21.778Z,29.03
2023-02-24T15:52:49.407Z,23.83
2023-02-24T15:55:17.725Z,26.10
2023-02-24T15:57:45.434Z,23.40
2023-02-24T16:00:16.581Z,23.60
2023-02-24T16:02:43.885Z,16.80
2023-02-24T16:05:14.217Z,20.20
2023-02-24T16:07:42.818Z,20.97
2023-02-24T16:10:34.012Z,20.63
2023-02-24T16:13:02.268Z,20.23
2023-02-24T16:15:33.276Z,21.30
2023-02-24T16:18:02.825Z,22.93
2023-02-24T16:20:37.336Z,17.60
2023-02-24T16:23:05.446Z,19.97
2023-02-24T16:25:38.913Z,20.33
2023-02-24T16:28:06.224Z,17.43
2023-02-24T16:30:35.619Z,16.70
2023-02-24T16:33:03.167Z,15.87
2023-02-24T16:35:30.511Z,15.50
2023-02-24T16:37:57.758Z,19.00
2023-02-24T16:40:30.218Z,19.33
2023-02-24T16:42:57.929Z,19.23
2023-02-24T16:45:29.115Z,21.57
2023-02-24T16:48:00.553Z,20.40
2023-02-24T16:50:33.639Z,20.17
2023-02-24T16:53:01.135Z,20.63
2023-02-24T16:55:28.631Z,21.33
2023-02-24T16:57:55.893Z,23.70
2023-02-24T17:00:24.392Z,23.80
2023-02-24T17:02:52.911Z,19.40
2023-02-24T17:05:20.223Z,23.27
2023-02-24T17:07:48.809Z,18.87
2023-02-24T17:10:16.702Z,18.13
2023-02-24T17:12:44.154Z,18.73
2023-02-24T17:15:15.374Z,18.03
2023-02-24T17:17:43.086Z,20.27
2023-02-24T17:20:13.593Z,21.93
2023-02-24T17:22:40.957Z,21.93
2023-02-24T17:25:08.640Z,33.83
2023-02-24T17:27:35.882Z,73.90
2023-02-24T17:30:03.145Z,42.97
2023-02-24T17:32:30.490Z,29.13
2023-02-24T17:34:57.769Z,23.83
2023-02-24T17:37:25.004Z,19.53
2023-02-24T17:39:52.304Z,20.40
2023-02-24T17:42:19.553Z,24.30
2023-02-24T17:44:47.579Z,22.17
2023-02-24T17:47:14.880Z,23.07
2023-02-24T17:49:42.185Z,24.70
2023-02-24T17:52:09.667Z,24.50
2023-02-24T17:54:37.136Z,24.60
2023-02-24T17:57:04.511Z,19.50
2023-02-24T17:59:31.786Z,20.77
2023-02-24T18:02:00.226Z,19.87
2023-02-24T18:04:27.563Z,18.60
2023-02-24T18:06:54.884Z,14.00
2023-02-24T18:09:23.846Z,10.17
2023-02-24T18:11:51.237Z,13.47
2023-02-24T18:14:18.467Z,12.77
2023-02-24T18:16:45.420Z,14.53
2023-02-24T18:19:12.441Z,20.27
2023-02-24T18:21:39.419Z,26.00
2023-02-24T18:24:06.724Z,22.23
2023-02-24T18:26:33.596Z,25.03
2023-02-24T18:29:01.665Z,22.13
2023-02-24T18:31:29.667Z,19.47
2023-02-24T18:33:57.411Z,21.13
2023-02-24T18:36:24.980Z,20.30
2023-02-24T18:38:52.311Z,20.90
2023-02-24T18:41:21.843Z,22.67
2023-02-24T18:43:50.210Z,20.37
2023-02-24T18:46:17.596Z,21.13
2023-02-24T18:48:46.049Z,20.67
2023-02-24T18:51:21.293Z,22.70
2023-02-24T18:53:51.378Z,18.60
2023-02-24T18:56:25.292Z,25.63
2023-02-24T18:58:55.240Z,25.50
2023-02-24T19:01:29.170Z,27.50
2023-02-24T19:03:57.137Z,20.13
2023-02-24T19:06:26.957Z,20.27
2023-02-24T19:09:00.171Z,24.77
2023-02-24T19:11:27.570Z,18.50
2023-02-24T19:13:55.226Z,18.57
2023-02-24T19:16:23.058Z,19.53
2023-02-24T19:18:51.766Z,33.53
2023-02-24T19:21:19.111Z,26.23
2023-02-24T19:23:46.676Z,26.90
2023-02-24T19:26:19.020Z,25.40
2023-02-24T19:28:46.881Z,30.93
2023-02-24T19:31:16.002Z,34.93
2023-02-24T19:33:43.378Z,32.63
2023-02-24T19:36:11.552Z,26.77
2023-02-24T19:38:41.358Z,26.40
2023-02-24T19:41:08.861Z,22.00
2023-02-24T19:43:36.583Z,22.00
2023-02-24T19:46:06.292Z,20.70
2023-02-24T19:48:34.392Z,20.17
2023-02-24T19:51:15.686Z,21.13
2023-02-24T19:53:42.960Z,18.07
2023-02-24T19:56:10.767Z,16.63
2023-02-24T19:58:38.360Z,16.07
2023-02-24T20:01:13.392Z,12.23
2023-02-24T20:03:42.369Z,12.93
2023-02-24T20:06:25.798Z,12.50
2023-02-24T20:08:53.527Z,14.30
2023-02-24T20:11:21.269Z,9.83
2023-02-24T20:13:48.843Z,11.37
2023-02-24T20:16:19.889Z,12.60
2023-02-24T20:18:47.399Z,16.53
2023-02-24T20:21:14.764Z,12.47
2023-02-24T20:23:42.456Z,13.37
2023-02-24T20:26:16.812Z,10.63
2023-02-24T20:28:45.067Z,12.43
2023-02-24T20:31:15.566Z,12.60
2023-02-24T20:33:43.821Z,9.37
2023-02-24T20:36:22.506Z,11.40
2023-02-24T20:38:51.079Z,11.37
2023-02-24T20:41:19.857Z,10.87
2023-02-24T20:43:47.739Z,15.47
2023-02-24T20:46:18.197Z,12.83
2023-02-24T20:48:46.324Z,13.33
2023-02-24T20:51:13.810Z,13.00
2023-02-24T20:53:55.891Z,16.40
2023-02-24T20:56:25.180Z,17.27
2023-02-24T20:58:54.283Z,23.07
2023-02-24T21:01:21.782Z,28.93
2023-02-24T21:03:49.239Z,22.33
2023-02-24T21:06:17.872Z,21.47
2023-02-24T21:08:46.607Z,20.10
2023-02-24T21:11:14.486Z,18.97
2023-02-24T21:13:46.669Z,19.70
2023-02-24T21:16:15.805Z,17.33
2023-02-24T21:18:45.409Z,16.33
2023-02-24T21:21:12.915Z,16.47
2023-02-24T21:23:41.921Z,17.63
2023-02-24T21:26:09.986Z,17.10
2023-02-24T21:28:37.935Z,13.80
2023-02-24T21:31:13.917Z,14.47
2023-02-24T21:33:41.385Z,15.33
2023-02-24T21:36:13.603Z,19.37
2023-02-24T21:38:41.397Z,18.03
2023-02-24T21:41:13.177Z,16.33
2023-02-24T21:43:40.461Z,24.03
2023-02-24T21:46:09.249Z,26.73
2023-02-24T21:48:37.374Z,29.60
2023-02-24T21:51:07.130Z,25.83
2023-02-24T21:53:35.987Z,25.17
2023-02-24T21:56:25.424Z,24.37
2023-02-24T21:58:57.190Z,24.23
2023-02-24T22:01:44.667Z,21.67
2023-02-24T22:04:19.844Z,23.03
2023-02-24T22:06:47.161Z,22.17
2023-02-24T22:09:20.579Z,22.00
2023-02-24T22:11:49.410Z,22.70
2023-02-24T22:14:17.051Z,21.47
2023-02-24T22:16:44.341Z,25.73
2023-02-24T22:19:12.153Z,21.93
2023-02-24T22:21:42.438Z,21.40
2023-02-24T22:24:13.480Z,20.47
2023-02-24T22:26:41.088Z,23.13
2023-02-24T22:29:08.587Z,24.10
2023-02-24T22:31:39.730Z,22.87
2023-02-24T22:34:08.913Z,23.30
2023-02-24T22:36:36.891Z,21.30
2023-02-24T22:39:05.510Z,24.93
2023-02-24T22:41:34.883Z,21.80
2023-02-24T22:44:04.165Z,25.70
2023-02-24T22:46:34.178Z,24.50
2023-02-24T22:49:01.503Z,26.67
2023-02-24T22:51:29.299Z,26.70
2023-02-24T22:53:56.969Z,29.37
2023-02-24T22:56:26.747Z,29.60
2023-02-24T22:58:53.983Z,25.67
2023-02-24T23:01:27.277Z,30.47
2023-02-24T23:03:54.808Z,25.73
2023-02-24T23:06:23.806Z,29.33
2023-02-24T23:08:51.906Z,26.87
2023-02-24T23:11:33.257Z,23.20
2023-02-24T23:14:04.105Z,21.43
2023-02-24T23:16:33.604Z,20.77
2023-02-24T23:19:06.062Z,16.37
2023-02-24T23:21:39.517Z,15.43
2023-02-24T23:24:08.261Z,14.13
2023-02-24T23:26:35.566Z,12.40
2023-02-24T23:29:02.891Z,10.17
2023-02-24T23:31:30.446Z,9.03
2023-02-24T23:33:58.222Z,9.60
2023-02-24T23:36:26.264Z,9.13
2023-02-24T23:38:53.632Z,10.17
2023-02-24T23:41:20.933Z,7.27
2023-02-24T23:43:48.687Z,7.20
2023-02-24T23:46:16.022Z,8.20
2023-02-24T23:48:43.469Z,6.83
2023-02-24T23:51:13.695Z,9.20
2023-02-24T23:53:42.508Z,11.23
2023-02-24T23:56:14.755Z,9.00
2023-02-24T23:58:42.108Z,8.97
